Time;durP1;ratioP1;P1;durP2;ratioP2;P2;SDS_P1;SDS_P2;PMS_P1;PMS_P2;Temp;Humidity;BMP_temperature;BMP_pressure;BME280_temperature;BME280_humidity;BME280_pressure;Samples;Min_cycle;Max_cycle;Signal;HPM_P1;HPM_P2
2022/09/07 00:00:34;;;;;;;18.00;14.18;;;25.20;67.50;;;;;;4934438;29;20036;-63
2022/09/07 00:02:59;;;;;;;21.35;16.15;;;25.10;67.60;;;;;;4936292;29;20064;-59
2022/09/07 00:05:27;;;;;;;20.17;15.30;;;25.10;68.10;;;;;;4936098;29;20110;-59
2022/09/07 00:07:53;;;;;;;24.08;15.88;;;25.00;68.40;;;;;;4935732;29;20112;-60
2022/09/07 00:10:19;;;;;;;18.92;14.80;;;24.90;68.80;;;;;;4935982;29;20036;-60
2022/09/07 00:12:45;;;;;;;20.43;15.27;;;24.90;68.80;;;;;;4935980;29;20031;-59
2022/09/07 00:15:11;;;;;;;22.37;15.07;;;24.90;69.00;;;;;;4935822;29;20036;-58
2022/09/07 00:17:38;;;;;;;21.27;16.10;;;24.90;69.40;;;;;;4935707;29;20413;-61
2022/09/07 00:20:06;;;;;;;20.98;15.32;;;24.90;70.30;;;;;;4922790;29;20112;-59
2022/09/07 00:22:32;;;;;;;20.25;14.98;;;24.80;69.90;;;;;;4935270;29;20027;-59
2022/09/07 00:24:58;;;;;;;18.17;14.83;;;;;;;;;;4934739;29;20032;-60
2022/09/07 00:27:24;;;;;;;23.75;15.50;;;;;;;;;;4935789;29;20263;-58
2022/09/07 00:29:50;;;;;;;19.00;15.98;;;;;;;;;;4935740;29;20027;-61
2022/09/07 00:32:16;;;;;;;23.45;15.40;;;;;;;;;;4934317;29;20567;-61
2022/09/07 00:34:43;;;;;;;18.13;15.37;;;;;;;;;;4934416;29;20503;-61
2022/09/07 00:37:09;;;;;;;19.35;17.20;;;;;;;;;;4935263;29;20519;-60
2022/09/07 00:39:36;;;;;;;23.10;15.03;;;;;;;;;;4933893;29;20529;-60
2022/09/07 00:42:02;;;;;;;23.75;16.45;;;;;;;;;;4935504;29;20259;-58
2022/09/07 00:44:44;;;;;;;19.80;15.50;;;;;;;;;;4935425;29;20369;-60
2022/09/07 00:47:18;;;;;;;26.45;17.38;;;;;;;;;;4935502;29;20075;-60
2022/09/07 00:49:46;;;;;;;19.52;16.20;;;;;;;;;;4934995;29;20031;-60
2022/09/07 00:52:13;;;;;;;17.80;15.63;;;;;;;;;;4934521;29;20039;-59
2022/09/07 00:54:43;;;;;;;20.10;16.00;;;;;;;;;;4934767;29;20082;-60
2022/09/07 00:57:09;;;;;;;19.35;17.35;;;;;;;;;;4935189;29;20492;-60
2022/09/07 00:59:38;;;;;;;23.67;17.07;;;;;;;;;;4934873;29;20136;-60
2022/09/07 01:02:04;;;;;;;20.00;15.95;;;;;;;;;;4934942;29;20276;-60
2022/09/07 01:04:31;;;;;;;18.85;16.95;;;;;;;;;;4934880;29;20023;-60
2022/09/07 01:06:58;;;;;;;22.48;16.52;;;24.70;70.50;;;;;;4935225;29;20056;-60
2022/09/07 01:09:25;;;;;;;23.45;18.85;;;;;;;;;;4934671;29;20058;-59
2022/09/07 01:11:51;;;;;;;;;;;;;;;;;;4935333;29;20027;-60
2022/09/07 01:14:23;;;;;;;22.80;18.00;;;;;;;;;;4934940;29;20398;-59
2022/09/07 01:17:07;;;;;;;20.02;17.98;;;;;;;;;;4934498;29;20070;-61
2022/09/07 01:19:36;;;;;;;17.58;15.77;;;;;;;;;;4934233;29;20393;-60
2022/09/07 01:22:11;;;;;;;22.52;17.77;;;;;;;;;;4934633;29;20031;-60
2022/09/07 01:24:41;;;;;;;19.50;17.33;;;;;;;;;;4934632;29;20071;-61
2022/09/07 01:27:07;;;;;;;24.25;17.85;;;;;;;;;;4934605;29;20032;-58
2022/09/07 01:29:36;;;;;;;24.40;18.33;;;;;;;;;;4934312;29;20027;-61
2022/09/07 01:32:02;;;;;;;20.38;16.83;;;;;;;;;;4934421;29;20142;-61
2022/09/07 01:34:28;;;;;;;20.13;18.00;;;;;;;;;;4933824;29;20537;-61
2022/09/07 01:37:07;;;;;;;21.87;19.57;;;;;;;;;;4934620;29;20122;-61
2022/09/07 01:39:43;;;;;;;20.10;17.88;;;;;;;;;;4933963;29;20094;-59
2022/09/07 01:42:11;;;;;;;22.98;17.90;;;;;;;;;;4934339;29;20039;-61
2022/09/07 01:44:54;;;;;;;19.90;16.90;;;;;;;;;;4934481;29;20572;-61
2022/09/07 01:47:23;;;;;;;20.77;18.25;;;;;;;;;;4934383;29;20036;-61
2022/09/07 01:49:55;;;;;;;24.05;17.90;;;;;;;;;;4934097;29;20024;-61
2022/09/07 01:52:41;;;;;;;21.52;17.30;;;;;;;;;;4934363;29;20057;-59
2022/09/07 01:55:13;;;;;;;26.98;19.02;;;;;;;;;;4933788;29;20511;-60
2022/09/07 01:57:48;;;;;;;23.42;18.42;;;;;;;;;;4934650;29;20032;-59
2022/09/07 02:00:14;;;;;;;22.95;18.80;;;;;;;;;;4934837;29;20028;-61
2022/09/07 02:02:40;;;;;;;;;;;;;;;;;;4933102;29;20028;-61
2022/09/07 02:05:09;;;;;;;25.15;18.08;;;;;;;;;;4933174;29;19911;-61
2022/09/07 02:07:41;;;;;;;24.23;19.48;;;;;;;;;;4932636;29;20028;-61
2022/09/07 02:10:07;;;;;;;20.70;18.67;;;;;;;;;;4933832;29;20036;-61
2022/09/07 02:12:39;;;;;;;22.97;18.93;;;;;;;;;;4934113;29;20501;-60
2022/09/07 02:15:08;;;;;;;23.40;18.90;;;;;;;;;;4933564;29;20267;-61
2022/09/07 02:17:37;;;;;;;24.77;20.73;;;;;;;;;;4932978;29;20114;-61
2022/09/07 02:20:09;;;;;;;22.23;17.92;;;;;;;;;;4933964;29;20028;-61
2022/09/07 02:22:42;;;;;;;21.45;19.33;;;;;;;;;;4934148;29;20086;-61
2022/09/07 02:25:09;;;;;;;19.98;17.98;;;;;;;;;;4933539;29;20043;-61
2022/09/07 02:27:44;;;;;;;21.10;18.92;;;;;;;;;;4933949;29;20031;-62
2022/09/07 02:30:11;;;;;;;23.00;18.08;;;;;;;;;;4933760;29;20031;-61
2022/09/07 02:32:37;;;;;;;26.15;20.45;;;;;;;;;;4934483;29;20027;-61
2022/09/07 02:35:03;;;;;;;27.95;20.17;;;;;;;;;;4933624;29;20378;-61
2022/09/07 02:37:30;;;;;;;27.17;19.60;;;;;;;;;;4932683;29;20559;-61
2022/09/07 02:39:56;;;;;;;;;;;;;;;;;;4934198;29;20023;-61
2022/09/07 02:42:23;;;;;;;22.02;19.88;;;;;;;;;;4933838;29;19914;-61
2022/09/07 02:44:49;;;;;;;23.05;19.67;;;;;;;;;;4934026;29;20486;-61
2022/09/07 02:47:31;;;;;;;29.53;20.60;;;;;;;;;;4937980;29;20400;-62
2022/09/07 02:50:09;;;;;;;22.70;20.27;;;;;;;;;;4936808;29;20024;-62
2022/09/07 02:52:43;;;;;;;26.92;20.33;;;;;;;;;;4934328;29;20040;-61
2022/09/07 02:55:25;;;;;;;25.02;19.08;;;;;;;;;;4937141;29;20034;-62
2022/09/07 02:58:04;;;;;;;20.98;18.92;;;;;;;;;;4937800;29;20094;-60
2022/09/07 03:00:32;;;;;;;22.65;20.33;;;;;;;;;;4936106;29;21668;-60
2022/09/07 03:03:01;;;;;;;25.30;19.35;;;;;;;;;;4936628;29;20058;-60
2022/09/07 03:05:32;;;;;;;24.38;20.60;;;;;;;;;;4934114;29;20032;-59
2022/09/07 03:08:00;;;;;;;21.63;19.55;;;24.60;73.10;;;;;;4937378;29;20039;-58
2022/09/07 03:10:27;;;;;;;23.38;19.83;;;24.10;77.40;;;;;;4936780;29;20035;-59
2022/09/07 03:12:53;;;;;;;26.85;20.27;;;;;;;;;;4937003;29;20138;-58
2022/09/07 03:15:24;;;;;;;21.53;19.20;;;;;;;;;;4937228;29;20555;-59
2022/09/07 03:17:51;;;;;;;25.73;20.45;;;;;;;;;;4937078;29;20294;-60
2022/09/07 03:20:17;;;;;;;26.40;20.73;;;;;;;;;;4937118;29;20027;-58
2022/09/07 03:22:44;;;;;;;28.33;21.38;;;;;;;;;;4936636;29;20488;-59
2022/09/07 03:25:10;;;;;;;31.00;20.65;;;;;;;;;;4936348;29;20027;-61
2022/09/07 03:27:37;;;;;;;27.58;21.83;;;;;;;;;;4942973;29;20619;-61
2022/09/07 03:30:04;;;;;;;25.70;22.00;;;;;;;;;;4941461;28;20032;-59
2022/09/07 03:32:31;;;;;;;27.40;22.77;;;;;;;;;;4936624;29;20028;-61
2022/09/07 03:34:58;;;;;;;25.63;22.73;;;;;;;;;;4936649;29;20036;-59
2022/09/07 03:37:24;;;;;;;24.35;21.80;;;;;;;;;;4940350;29;20028;-59
2022/09/07 03:39:50;;;;;;;26.23;22.65;;;;;;;;;;4944470;28;20028;-59
2022/09/07 03:42:16;;;;;;;26.23;22.92;;;;;;;;;;4950184;28;20023;-61
2022/09/07 03:44:42;;;;;;;24.70;22.10;;;;;;;;;;4941920;28;20500;-59
2022/09/07 03:47:08;;;;;;;26.00;23.00;;;;;;;;;;4936502;29;20716;-63
2022/09/07 03:49:34;;;;;;;26.60;23.88;;;;;;;;;;4936316;29;20027;-60
2022/09/07 03:52:00;;;;;;;33.93;23.93;;;;;;;;;;4936087;29;20043;-60
2022/09/07 03:54:26;;;;;;;26.43;23.57;;;24.10;76.90;;;;;;4934822;29;20113;-61
2022/09/07 03:56:51;;;;;;;30.07;24.00;;;24.00;78.50;;;;;;4935423;29;20063;-59
2022/09/07 03:59:17;;;;;;;25.63;22.93;;;23.90;78.30;;;;;;4936057;29;20030;-61
2022/09/07 04:01:43;;;;;;;26.37;23.53;;;23.90;78.30;;;;;;4935757;29;20493;-62
2022/09/07 04:04:09;;;;;;;31.07;23.07;;;23.90;78.00;;;;;;4935025;29;20118;-61
2022/09/07 04:06:34;;;;;;;31.70;24.33;;;23.90;78.10;;;;;;4936273;29;20090;-62
2022/09/07 04:09:05;;;;;;;28.90;23.03;;;23.80;78.10;;;;;;4936281;29;20055;-60
2022/09/07 04:11:31;;;;;;;26.65;21.95;;;23.80;78.00;;;;;;4935840;29;20404;-61
2022/09/07 04:13:57;;;;;;;29.38;23.25;;;23.80;78.20;;;;;;4936240;29;20124;-60
2022/09/07 04:16:25;;;;;;;29.53;23.33;;;23.80;78.30;;;;;;4935720;29;20061;-61
2022/09/07 04:18:53;;;;;;;32.13;24.42;;;23.80;78.10;;;;;;4935949;29;20083;-61
2022/09/07 04:21:24;;;;;;;26.65;22.23;;;23.80;78.00;;;;;;4935741;29;20370;-60
2022/09/07 04:23:50;;;;;;;25.83;23.08;;;23.80;77.80;;;;;;4935981;29;20059;-61
2022/09/07 04:26:18;;;;;;;29.77;23.83;;;23.80;77.70;;;;;;4934574;29;20031;-61
2022/09/07 04:28:45;;;;;;;40.08;24.15;;;23.80;77.60;;;;;;4935905;29;20028;-58
2022/09/07 04:31:12;;;;;;;33.83;23.27;;;23.80;77.50;;;;;;4935583;29;20030;-58
2022/09/07 04:33:38;;;;;;;25.02;22.40;;;23.80;77.20;;;;;;4935909;29;20381;-62
2022/09/07 04:36:04;;;;;;;33.27;23.20;;;23.80;77.30;;;;;;4936005;29;20031;-61
2022/09/07 04:38:29;;;;;;;26.30;23.67;;;23.80;77.20;;;;;;4935675;29;20024;-61
2022/09/07 04:41:00;;;;;;;26.77;22.30;;;23.80;77.10;;;;;;4935314;29;20028;-61
2022/09/07 04:43:27;;;;;;;28.52;25.10;;;23.80;77.00;;;;;;4935718;29;20457;-61
2022/09/07 04:45:53;;;;;;;32.60;25.08;;;23.80;77.20;;;;;;4934321;29;20082;-61
2022/09/07 04:48:19;;;;;;;29.80;25.17;;;23.70;77.20;;;;;;4935711;29;20110;-62
2022/09/07 04:50:45;;;;;;;30.27;24.57;;;23.70;77.20;;;;;;4935257;29;20027;-63
2022/09/07 04:53:10;;;;;;;31.63;23.87;;;23.60;77.30;;;;;;4934202;29;20519;-61
2022/09/07 04:55:36;;;;;;;34.67;27.30;;;23.50;77.40;;;;;;4935368;29;20036;-58
2022/09/07 04:58:02;;;;;;;29.47;25.60;;;23.50;77.60;;;;;;4935351;29;20028;-61
2022/09/07 05:00:28;;;;;;;26.98;23.77;;;23.50;77.60;;;;;;4934992;29;20116;-63
2022/09/07 05:02:54;;;;;;;27.30;23.90;;;23.50;77.40;;;;;;4935415;29;20023;-61
2022/09/07 05:05:19;;;;;;;29.73;24.57;;;23.40;77.50;;;;;;4935360;29;20023;-61
2022/09/07 05:07:45;;;;;;;31.97;26.07;;;23.50;77.60;;;;;;4934606;29;20034;-62
2022/09/07 05:10:11;;;;;;;28.00;24.90;;;23.50;77.60;;;;;;4935076;29;20136;-60
2022/09/07 05:12:37;;;;;;;29.37;23.97;;;23.40;77.30;;;;;;4934997;29;20024;-62
2022/09/07 05:15:03;;;;;;;38.53;23.97;;;23.50;77.40;;;;;;4935106;29;20024;-61
2022/09/07 05:17:29;;;;;;;29.80;23.27;;;23.40;77.30;;;;;;4934967;29;20032;-61
2022/09/07 05:19:56;;;;;;;28.17;23.90;;;23.40;77.30;;;;;;4935053;29;20074;-61
2022/09/07 05:22:23;;;;;;;26.80;22.73;;;23.40;77.30;;;;;;4934758;29;20031;-61
2022/09/07 05:24:49;;;;;;;29.67;22.98;;;23.40;77.40;;;;;;4933701;29;20096;-59
2022/09/07 05:27:15;;;;;;;25.97;23.20;;;23.40;77.30;;;;;;4934989;29;20032;-59
2022/09/07 05:29:41;;;;;;;32.23;24.07;;;23.50;77.30;;;;;;4934837;29;20030;-61
2022/09/07 05:32:08;;;;;;;38.90;23.58;;;23.40;77.90;;;;;;4933447;29;20024;-61
2022/09/07 05:34:33;;;;;;;25.60;22.25;;;23.40;77.80;;;;;;4934952;29;20038;-61
2022/09/07 05:37:00;;;;;;;24.70;22.10;;;23.50;77.70;;;;;;4933536;29;20130;-61
2022/09/07 05:39:26;;;;;;;24.60;22.10;;;23.50;77.70;;;;;;4933411;29;20030;-61
2022/09/07 05:44:29;;;;;;;29.65;22.48;;;23.50;78.40;;;;;;5135350;23;20042;-50
2022/09/07 05:46:55;;;;;;;32.42;23.23;;;23.50;78.30;;;;;;5031735;28;20026;-53
2022/09/07 05:49:21;;;;;;;28.42;23.10;;;23.60;78.40;;;;;;5031909;28;20018;-52
2022/09/07 05:51:47;;;;;;;30.17;24.20;;;23.70;78.40;;;;;;5031681;28;20033;-52
2022/09/07 05:54:13;;;;;;;29.73;23.47;;;23.70;78.40;;;;;;5030437;28;20057;-52
2022/09/07 05:56:39;;;;;;;25.07;22.47;;;23.80;78.50;;;;;;5051275;22;20050;-60
2022/09/07 05:59:04;;;;;;;26.03;23.23;;;23.90;78.50;;;;;;5011872;28;20094;-60
2022/09/07 06:01:30;;;;;;;34.33;23.83;;;24.00;78.40;;;;;;5011547;28;20029;-60
2022/09/07 06:03:56;;;;;;;28.42;23.50;;;24.10;78.20;;;;;;5011939;28;20028;-60
2022/09/07 06:06:22;;;;;;;29.10;24.47;;;24.30;77.90;;;;;;5010557;28;20026;-60
2022/09/07 06:08:51;;;;;;;28.37;23.43;;;24.40;77.90;;;;;;5011887;28;20022;-60
2022/09/07 06:11:19;;;;;;;28.35;23.70;;;24.40;77.80;;;;;;5011650;28;20072;-60
2022/09/07 06:13:45;;;;;;;27.30;22.88;;;24.50;77.90;;;;;;5011700;28;20026;-60
2022/09/07 06:16:12;;;;;;;25.77;22.97;;;24.60;77.80;;;;;;5010579;28;20470;-60
2022/09/07 06:18:42;;;;;;;25.48;21.45;;;24.70;77.70;;;;;;5010347;28;20494;-59
2022/09/07 06:21:11;;;;;;;23.70;20.88;;;24.70;77.40;;;;;;5015618;28;20053;-58
2022/09/07 06:23:38;;;;;;;23.80;21.13;;;24.80;77.40;;;;;;5015786;28;20099;-60
2022/09/07 06:26:04;;;;;;;24.33;21.42;;;24.90;77.30;;;;;;5014335;28;20014;-60
2022/09/07 06:28:31;;;;;;;22.90;20.53;;;25.00;77.20;;;;;;5015547;28;20197;-60
2022/09/07 06:31:05;;;;;;;26.08;21.70;;;25.10;76.90;;;;;;5015511;28;20072;-60
2022/09/07 06:33:31;;;;;;;21.83;19.58;;;25.10;76.80;;;;;;5014383;28;20037;-60
2022/09/07 06:35:59;;;;;;;23.87;20.47;;;25.20;76.70;;;;;;5015541;28;20034;-60
2022/09/07 06:38:28;;;;;;;24.80;18.52;;;25.20;76.70;;;;;;5015246;28;20081;-60
2022/09/07 06:40:58;;;;;;;22.00;19.42;;;25.20;76.90;;;;;;5015191;28;20018;-59
2022/09/07 06:43:24;;;;;;;21.23;18.60;;;25.30;76.60;;;;;;5015308;28;20022;-59
2022/09/07 06:45:53;;;;;;;22.77;19.43;;;25.30;76.40;;;;;;5015392;28;20029;-60
2022/09/07 06:48:19;;;;;;;21.85;18.60;;;25.40;76.30;;;;;;5015264;28;20041;-60
2022/09/07 06:50:55;;;;;;;20.08;17.58;;;25.50;76.00;;;;;;5014951;28;20613;-60
2022/09/07 06:53:20;;;;;;;23.55;17.98;;;25.70;76.10;;;;;;5015162;28;20018;-60
2022/09/07 06:55:46;;;;;;;18.83;16.93;;;25.70;75.40;;;;;;5015170;28;20033;-60
2022/09/07 06:58:12;;;;;;;20.30;16.70;;;25.80;75.70;;;;;;5013685;28;20061;-60
2022/09/07 07:00:37;;;;;;;27.53;18.60;;;25.90;74.60;;;;;;5014986;28;20030;-60
2022/09/07 07:03:03;;;;;;;19.73;16.83;;;25.90;74.60;;;;;;5014994;28;20034;-60
2022/09/07 07:05:30;;;;;;;19.40;17.43;;;26.10;74.30;;;;;;5014940;28;20041;-59
2022/09/07 07:07:56;;;;;;;19.85;17.85;;;26.10;73.80;;;;;;5014833;28;20037;-61
2022/09/07 07:10:23;;;;;;;21.60;18.05;;;26.20;73.70;;;;;;5014879;28;20018;-58
2022/09/07 07:12:48;;;;;;;22.00;18.20;;;26.20;73.80;;;;;;5014755;28;20029;-58
2022/09/07 07:15:14;;;;;;;21.70;17.43;;;26.20;73.30;;;;;;5015348;28;20087;-58
2022/09/07 07:17:40;;;;;;;26.70;17.70;;;26.30;73.40;;;;;;5013504;28;20026;-58
2022/09/07 07:20:06;;;;;;;22.33;17.30;;;26.40;73.80;;;;;;5014609;28;20033;-58
2022/09/07 07:22:32;;;;;;;17.73;15.88;;;26.40;72.90;;;;;;5014471;28;20041;-56
2022/09/07 07:24:58;;;;;;;20.53;15.97;;;26.50;72.60;;;;;;5014891;28;20022;-58
2022/09/07 07:27:24;;;;;;;19.90;16.80;;;26.60;72.70;;;;;;5014554;28;20517;-58
2022/09/07 07:29:51;;;;;;;21.20;18.17;;;26.60;72.40;;;;;;5014586;28;20406;-58
2022/09/07 07:32:16;;;;;;;21.38;18.13;;;26.70;72.20;;;;;;5013519;28;20041;-58
2022/09/07 07:34:42;;;;;;;20.07;16.63;;;26.80;72.20;;;;;;5014399;28;20022;-58
2022/09/07 07:37:08;;;;;;;22.17;17.20;;;26.90;71.80;;;;;;5014724;28;20112;-58
2022/09/07 07:39:34;;;;;;;22.67;17.13;;;27.00;71.20;;;;;;5014643;28;20533;-59
2022/09/07 07:41:59;;;;;;;23.00;16.77;;;27.20;70.50;;;;;;5014218;28;20021;-57
2022/09/07 07:44:25;;;;;;;18.80;16.83;;;27.30;70.40;;;;;;5014277;28;20261;-59
2022/09/07 07:46:51;;;;;;;19.50;17.43;;;27.40;70.40;;;;;;5012985;28;20026;-58
2022/09/07 07:49:17;;;;;;;19.13;16.97;;;27.50;70.50;;;;;;5012874;28;20509;-58
2022/09/07 07:51:42;;;;;;;20.07;16.73;;;27.40;70.70;;;;;;5013978;28;20388;-59
2022/09/07 07:54:08;;;;;;;19.87;16.47;;;27.50;70.40;;;;;;5014112;28;20025;-59
2022/09/07 07:56:34;;;;;;;93.70;23.27;;;27.70;70.60;;;;;;5013798;28;20026;-56
2022/09/07 07:59:00;;;;;;;17.77;15.93;;;27.80;69.90;;;;;;5013992;28;20025;-57
2022/09/07 08:01:26;;;;;;;18.60;16.75;;;27.90;69.60;;;;;;5013834;28;20018;-59
2022/09/07 08:03:51;;;;;;;20.30;17.43;;;28.10;68.90;;;;;;5013770;28;20022;-59
2022/09/07 08:06:20;;;;;;;22.50;17.33;;;28.10;68.40;;;;;;5012542;28;20391;-56
2022/09/07 08:08:46;;;;;;;19.20;16.95;;;28.10;68.30;;;;;;5013804;28;20029;-58
2022/09/07 08:11:19;;;;;;;20.42;18.38;;;28.10;68.90;;;;;;5012383;28;20021;-57
2022/09/07 08:13:48;;;;;;;23.77;17.83;;;28.10;69.00;;;;;;5012491;28;20556;-59
2022/09/07 08:16:15;;;;;;;20.90;18.75;;;28.20;68.40;;;;;;5013653;28;20075;-58
2022/09/07 08:18:41;;;;;;;;;;;28.30;68.30;;;;;;5014060;28;20064;-58
2022/09/07 08:21:13;;;;;;;101.90;67.35;;;28.30;68.60;;;;;;5013459;28;19905;-61
2022/09/07 08:23:40;;;;;;;68.97;59.65;;;28.50;68.60;;;;;;5013662;28;20025;-59
2022/09/07 08:26:06;;;;;;;23.70;18.73;;;28.60;67.80;;;;;;5013574;28;20046;-59
2022/09/07 08:28:35;;;;;;;20.92;18.70;;;28.60;67.20;;;;;;5013384;28;20394;-59
2022/09/07 08:31:06;;;;;;;18.75;16.50;;;28.60;67.20;;;;;;5013288;28;20038;-59
2022/09/07 08:33:34;;;;;;;23.67;17.63;;;28.60;67.10;;;;;;5013438;28;20022;-54
2022/09/07 08:36:02;;;;;;;20.38;17.17;;;28.70;67.50;;;;;;5013306;28;20033;-56
2022/09/07 08:38:29;;;;;;;17.58;15.88;;;28.70;66.80;;;;;;5013093;28;20044;-56
2022/09/07 08:40:55;;;;;;;17.80;16.10;;;28.80;66.50;;;;;;5013124;28;20088;-56
2022/09/07 08:43:42;;;;;;;18.35;15.88;;;29.00;66.60;;;;;;5013118;28;20022;-57
2022/09/07 08:46:39;;;;;;;19.58;15.93;;;29.00;66.30;;;;;;5013200;28;20018;-59
2022/09/07 08:49:10;;;;;;;19.67;17.67;;;29.20;66.60;;;;;;5012985;28;20038;-56
2022/09/07 08:51:45;;;;;;;19.88;14.80;;;29.40;65.20;;;;;;5012882;28;20040;-57
2022/09/07 08:54:15;;;;;;;16.35;14.75;;;29.40;64.70;;;;;;5012932;28;20026;-56
2022/09/07 08:56:47;;;;;;;16.00;13.55;;;29.30;64.50;;;;;;5012617;28;20160;-57
2022/09/07 08:59:23;;;;;;;17.42;14.90;;;29.30;64.50;;;;;;5012883;28;20028;-56
2022/09/07 09:01:49;;;;;;;18.20;14.82;;;29.30;64.40;;;;;;5012698;28;20022;-57
2022/09/07 09:04:22;;;;;;;14.77;13.37;;;29.30;64.50;;;;;;5012716;28;20085;-53
2022/09/07 09:07:13;;;;;;;17.13;14.13;;;29.10;64.80;;;;;;5012655;28;20025;-58
2022/09/07 09:09:53;;;;;;;17.13;13.43;;;29.20;64.60;;;;;;5012864;28;20030;-54
2022/09/07 09:12:39;;;;;;;16.88;12.07;;;29.40;64.30;;;;;;5012479;28;20034;-57
2022/09/07 09:15:14;;;;;;;12.93;11.70;;;29.60;63.90;;;;;;5012738;28;20103;-58
2022/09/07 09:17:45;;;;;;;19.15;11.77;;;29.60;63.40;;;;;;5012541;28;20038;-56
2022/09/07 09:20:25;;;;;;;14.68;11.88;;;29.70;64.50;;;;;;5012609;28;20026;-57
2022/09/07 09:22:59;;;;;;;14.82;11.10;;;29.70;63.70;;;;;;5012852;28;20489;-54
2022/09/07 09:25:32;;;;;;;11.65;9.90;;;29.70;62.90;;;;;;5012454;28;20022;-55
2022/09/07 09:27:58;;;;;;;16.63;13.05;;;29.70;63.10;;;;;;5012525;28;20030;-55
2022/09/07 09:30:25;;;;;;;16.13;14.43;;;29.80;63.10;;;;;;5012311;28;20022;-55
2022/09/07 09:33:15;;;;;;;16.65;13.90;;;29.80;62.80;;;;;;5010853;28;20058;-53
2022/09/07 09:35:42;;;;;;;16.30;14.02;;;29.90;62.80;;;;;;5012243;28;20083;-55
2022/09/07 09:38:33;;;;;;;24.58;14.95;;;29.80;63.10;;;;;;5012081;28;20025;-56
2022/09/07 09:41:04;;;;;;;13.98;10.70;;;29.90;62.80;;;;;;5012144;28;20025;-57
2022/09/07 09:43:39;;;;;;;13.68;11.27;;;29.90;61.80;;;;;;5011219;28;20393;-54
2022/09/07 09:46:17;;;;;;;16.63;11.18;;;29.90;62.30;;;;;;5012140;28;20029;-53
2022/09/07 09:48:50;;;;;;;17.63;13.88;;;30.00;60.80;;;;;;5012136;28;20109;-56
2022/09/07 09:51:16;;;;;;;16.00;14.45;;;30.10;61.50;;;;;;5011923;28;20026;-58
2022/09/07 09:54:15;;;;;;;16.40;14.80;;;30.10;61.10;;;;;;5011643;28;20390;-56
2022/09/07 09:56:43;;;;;;;17.05;12.43;;;30.20;61.20;;;;;;5011696;28;20494;-55
2022/09/07 09:59:15;;;;;;;18.98;13.00;;;30.20;61.40;;;;;;5012063;28;20160;-56
2022/09/07 10:01:42;;;;;;;12.55;11.05;;;30.20;60.80;;;;;;5011850;28;20057;-57
2022/09/07 10:04:33;;;;;;;11.57;7.93;;;30.20;61.10;;;;;;5011905;28;20022;-56
2022/09/07 10:07:25;;;;;;;17.83;10.75;;;30.30;60.20;;;;;;5006320;28;20041;-57
2022/09/07 10:09:53;;;;;;;16.05;9.05;;;30.40;60.80;;;;;;5010692;28;20042;-52
2022/09/07 10:12:36;;;;;;;13.27;9.43;;;30.40;60.80;;;;;;5011656;28;20032;-57
2022/09/07 10:15:05;;;;;;;17.92;8.15;;;30.50;60.40;;;;;;5009458;28;20029;-57
2022/09/07 10:17:37;;;;;;;9.07;6.72;;;30.60;60.60;;;;;;5025334;28;20037;-57
2022/09/07 10:20:14;;;;;;;9.88;7.05;;;30.70;59.20;;;;;;5011144;28;20037;-57
2022/09/07 10:22:51;;;;;;;11.70;6.97;;;30.60;59.60;;;;;;5005680;28;20031;-56
2022/09/07 10:25:31;;;;;;;8.63;7.15;;;30.60;59.80;;;;;;5007158;28;20022;-57
2022/09/07 10:28:07;;;;;;;9.85;4.93;;;30.70;59.40;;;;;;5007391;28;20056;-55
2022/09/07 10:30:58;;;;;;;13.73;5.60;;;30.60;58.30;;;;;;5003729;28;20042;-56
2022/09/07 10:33:40;;;;;;;7.88;5.97;;;30.60;59.10;;;;;;4989369;28;20062;-57
2022/09/07 10:36:24;;;;;;;9.27;6.13;;;30.60;58.60;;;;;;5011026;28;20454;-57
2022/09/07 10:39:12;;;;;;;6.13;4.78;;;30.60;59.10;;;;;;5013319;28;20029;-57
2022/09/07 10:41:44;;;;;;;12.32;5.82;;;30.60;59.20;;;;;;5016911;28;20475;-52
2022/09/07 10:44:36;;;;;;;12.27;6.43;;;30.60;59.10;;;;;;5009416;28;20034;-55
2022/09/07 10:47:11;;;;;;;15.07;6.38;;;30.60;59.40;;;;;;4971043;28;20120;-58
2022/09/07 10:49:37;;;;;;;9.48;5.25;;;30.50;59.50;;;;;;5010341;28;20479;-56
2022/09/07 10:52:36;;;;;;;11.47;6.57;;;30.60;59.50;;;;;;5010566;28;20033;-57
2022/09/07 10:55:22;;;;;;;16.85;7.05;;;30.60;58.60;;;;;;5008876;28;20026;-55
2022/09/07 10:58:15;;;;;;;14.43;6.80;;;30.50;59.60;;;;;;5009577;28;20030;-55
2022/09/07 11:00:57;;;;;;;9.60;6.78;;;30.50;60.20;;;;;;5010725;28;20054;-57
2022/09/07 11:03:35;;;;;;;9.57;6.10;;;30.30;59.80;;;;;;5010514;28;20026;-58
2022/09/07 11:06:21;;;;;;;11.80;5.90;;;30.10;59.60;;;;;;5009550;28;20072;-56
2022/09/07 11:09:08;;;;;;;8.20;6.03;;;30.00;60.70;;;;;;5013177;28;20189;-58
2022/09/07 11:12:00;;;;;;;9.07;6.18;;;29.80;60.20;;;;;;5013056;28;20038;-57
2022/09/07 11:14:28;;;;;;;13.30;6.70;;;29.60;60.70;;;;;;5014495;28;20100;-57
2022/09/07 11:17:04;;;;;;;9.40;5.57;;;29.50;61.60;;;;;;5014191;28;20034;-57
2022/09/07 11:19:47;;;;;;;7.80;5.80;;;29.60;61.60;;;;;;5011503;28;20034;-55
2022/09/07 11:22:32;;;;;;;11.57;6.28;;;29.60;60.80;;;;;;5012986;28;20053;-57
2022/09/07 11:25:05;;;;;;;14.95;5.53;;;29.50;58.90;;;;;;5013746;28;20076;-57
2022/09/07 11:27:41;;;;;;;13.95;5.63;;;29.40;61.20;;;;;;5012373;28;20120;-58
2022/09/07 11:30:26;;;;;;;8.43;5.60;;;29.50;61.20;;;;;;5012814;28;20022;-57
2022/09/07 11:33:22;;;;;;;10.05;5.97;;;29.60;60.00;;;;;;5015814;28;20038;-57
2022/09/07 11:36:01;;;;;;;8.35;6.10;;;29.70;60.90;;;;;;4994865;28;20041;-57
2022/09/07 11:38:34;;;;;;;8.82;6.30;;;29.70;60.40;;;;;;5013759;28;20034;-58
2022/09/07 11:41:22;;;;;;;11.80;6.68;;;29.90;58.90;;;;;;5013638;28;20581;-57
2022/09/07 11:44:05;;;;;;;11.68;7.25;;;29.90;59.60;;;;;;5012477;28;20809;-57
2022/09/07 11:46:39;;;;;;;11.43;6.65;;;29.80;59.20;;;;;;5014732;28;20037;-57
2022/09/07 11:49:13;;;;;;;11.38;6.65;;;29.90;59.90;;;;;;5013868;28;20030;-58
2022/09/07 11:51:45;;;;;;;10.13;7.13;;;30.10;59.20;;;;;;5013970;28;20022;-57
2022/09/07 11:54:14;;;;;;;12.20;7.88;;;30.40;58.60;;;;;;5012792;28;20057;-56
2022/09/07 11:56:41;;;;;;;9.98;6.55;;;30.50;58.60;;;;;;5014148;28;20545;-58
2022/09/07 11:59:38;;;;;;;10.27;5.60;;;30.70;58.00;;;;;;5013388;28;20025;-55
2022/09/07 12:02:25;;;;;;;9.13;5.82;;;31.00;57.10;;;;;;5013867;28;20449;-58
2022/09/07 12:05:19;;;;;;;8.68;5.80;;;31.20;57.80;;;;;;5013994;28;20482;-56
2022/09/07 12:07:54;;;;;;;7.70;6.03;;;31.40;56.00;;;;;;5013537;28;20390;-59
2022/09/07 12:10:19;;;;;;;8.75;6.75;;;31.40;57.00;;;;;;5013521;28;20090;-59
2022/09/07 12:12:48;;;;;;;11.50;6.80;;;31.50;55.90;;;;;;5013349;28;20486;-56
2022/09/07 12:15:23;;;;;;;14.40;7.85;;;31.60;55.20;;;;;;5013722;28;20113;-57
2022/09/07 12:18:20;;;;;;;11.05;7.03;;;31.50;54.20;;;;;;5012958;28;20026;-57
2022/09/07 12:20:47;;;;;;;12.50;6.72;;;31.40;54.50;;;;;;5013313;28;20382;-57
2022/09/07 12:23:16;;;;;;;12.20;7.10;;;31.30;55.30;;;;;;5013283;28;20447;-59
2022/09/07 12:25:47;;;;;;;11.88;6.50;;;31.30;54.20;;;;;;5012304;28;20037;-58
2022/09/07 12:28:24;;;;;;;10.75;7.32;;;31.30;53.80;;;;;;5013064;28;20433;-58
2022/09/07 12:31:03;;;;;;;14.50;8.27;;;31.10;54.30;;;;;;5013382;28;20073;-58
2022/09/07 12:33:34;;;;;;;8.95;6.72;;;31.10;54.20;;;;;;5013266;28;20529;-56
2022/09/07 12:36:01;;;;;;;9.20;6.00;;;31.00;56.20;;;;;;5013616;28;20062;-54
2022/09/07 12:38:29;;;;;;;9.65;6.45;;;30.80;55.50;;;;;;5013144;28;20040;-55
2022/09/07 12:41:03;;;;;;;11.68;7.15;;;30.90;55.90;;;;;;5012594;28;20113;-55
2022/09/07 12:43:33;;;;;;;10.30;7.20;;;31.00;55.40;;;;;;5012354;28;20088;-55
2022/09/07 12:46:00;;;;;;;13.70;6.28;;;31.30;55.60;;;;;;5012921;28;20022;-54
2022/09/07 12:48:57;;;;;;;10.02;5.90;;;31.60;54.60;;;;;;5012890;28;20018;-54
2022/09/07 12:51:31;;;;;;;14.52;7.00;;;31.70;55.30;;;;;;5011463;28;20038;-58
2022/09/07 12:54:18;;;;;;;10.90;7.07;;;31.80;54.70;;;;;;5012454;28;20025;-55
2022/09/07 12:56:45;;;;;;;12.13;6.80;;;32.10;54.30;;;;;;5012698;28;20041;-56
2022/09/07 12:59:34;;;;;;;18.38;7.60;;;32.50;53.70;;;;;;5013209;28;20537;-53
2022/09/07 13:02:23;;;;;;;10.38;6.55;;;33.00;52.20;;;;;;5006813;28;20486;-55
2022/09/07 13:05:15;;;;;;;11.45;6.15;;;33.20;52.30;;;;;;5012267;28;20022;-52
2022/09/07 13:07:56;;;;;;;10.60;6.55;;;33.40;51.60;;;;;;5012086;28;20045;-56
2022/09/07 13:10:36;;;;;;;9.80;5.55;;;33.70;51.10;;;;;;5012516;28;20080;-55
2022/09/07 13:13:06;;;;;;;7.43;5.97;;;33.80;49.40;;;;;;5012349;28;20045;-53
2022/09/07 13:15:35;;;;;;;12.05;5.97;;;33.80;49.50;;;;;;5012609;28;20049;-55
2022/09/07 13:18:02;;;;;;;9.10;5.28;;;33.60;49.60;;;;;;5011905;28;20402;-56
2022/09/07 13:20:31;;;;;;;10.82;5.32;;;33.70;49.40;;;;;;5012237;28;20033;-57